• Join FlightAware (Why Join?)
  • Login
  • US Flag 
02:31PM EDT


 

Airport Tracker/Info


-or-


 

Live Flight TrackerFlight Track Log ✈ AFL150 ✈ 21-Oct-2013 ✈ UUEE / SVO - MUHA / HAV

Flight Track Log - Related Links

Times and Time Zones

All times are in EDT time to prevent confusion due to time zone crossing. See the AFL150 flight status page for this flight to view local times or setup timezone preferences in your user account.

Time Position Orientation Groundspeed Altitude Reporting Facility
EDT Latitude Longitude Course Direction KTS MPH feet Rate Location/Type
09:21PM 24.3684 -81.5644 180° South  Level Estimated
09:22PM 24.2681 -81.6266 180° South  Level Estimated
09:22PM 27.8940 -82.6760 180° South 471 542 37,000  Level FlightAware
09:22PM 27.8801 -82.6669 150° Southeast 472 543 37,000  Level FlightAware ADS-B (KMCO)
09:23PM 27.8168 -82.6353 156° South 458 527 37,000  Level FlightAware ADS-B (KMCO)
09:23PM 27.7587 -82.6299 175° South 448 516 37,000  Level FlightAware ADS-B (KMCO)
09:24PM 27.6390 -82.6260 178° South 452 520 37,000  Level FlightAware
09:25PM 27.5710 -82.6240 179° South 453 521 37,000  Level FlightAware
09:25PM 27.4920 -82.6220 179° South 454 522 37,000  Level FlightAware
09:26PM 27.4150 -82.6200 179° South 456 525 37,000  Level FlightAware
09:26PM 27.3450 -82.6180 179° South 457 526 37,000  Level FlightAware
09:27PM 27.2730 -82.6160 179° South 457 526 37,000  Level FlightAware
09:28PM 27.2090 -82.6140 178° South 456 525 37,000  Level FlightAware
09:28PM 27.1330 -82.6120 179° South 448 516 37,000  Level FlightAware
09:29PM 27.0630 -82.6100 179° South 449 517 37,000  Level FlightAware
09:29PM 26.9980 -82.6080 178° South 449 517 37,000  Level FlightAware
09:30PM 26.9270 -82.6060 179° South 450 518 37,000  Level FlightAware
09:30PM 26.8532 -82.6034 178° South 458 527 37,000  Level FlightAware ADS-B (KMCO)
09:31PM 26.7740 -82.6010 178° South 450 518 37,000  Level FlightAware
09:32PM 26.6990 -82.5990 179° South 449 517 37,000  Level FlightAware
09:32PM 26.6060 -82.5960 178° South 447 514 37,000  Level FlightAware
09:33PM 26.5507 -82.5947 179° South 454 522 37,000  Level FlightAware ADS-B (KMCO)
09:33PM 26.4789 -82.5926 179° South 454 522 37,000  Level FlightAware ADS-B (KMCO)
09:34PM 26.3935 -82.5900 178° South 452 520 37,000  Level FlightAware ADS-B (KMCO)
09:35PM 26.2904 -82.5868 178° South 451 519 37,000  Level FlightAware ADS-B (KMCO)
09:35PM 26.2070 -82.5840 178° South 451 519 37,000  Level FlightAware
09:36PM 26.1397 -82.5823 179° South 452 520 37,000  Level FlightAware ADS-B (KMCO)
09:36PM 26.0767 -82.5804 178° South 453 521 37,000  Level FlightAware ADS-B (KMCO)
09:37PM 26.0140 -82.5785 178° South 453 521 37,000  Level FlightAware ADS-B (KMCO)
09:37PM 25.9684 -82.5771 178° South 452 520 37,000  Level FlightAware ADS-B (KMCO)
09:38PM 25.8852 -82.5746 178° South 453 521 37,000  Level FlightAware ADS-B (KMCO)
09:39PM 25.7981 -82.5720 178° South 454 522 37,000  Level FlightAware ADS-B (KMCO)
09:39PM 25.7136 -82.5694 178° South 455 524 37,000  Level FlightAware ADS-B (KMCO)
09:40PM 25.6208 -82.5667 178° South 455 524 37,000  Level FlightAware ADS-B (KMCO)
09:41PM 25.5562 -82.5647 178° South 456 525 37,000  Level FlightAware ADS-B (KMCO)
09:41PM 25.4980 -82.5630 178° South 457 526 37,000  Level FlightAware ADS-B (KMCO)
09:42PM 25.4000 -82.5600 178° South 448 516 37,000  Level FlightAware
09:42PM 25.3198 -82.5577 179° South 455 524 37,000  Level FlightAware ADS-B (KMCO)
09:43PM 25.2390 -82.5550 178° South 448 516 37,000  Level FlightAware
09:44PM 25.1568 -82.5528 179° South 456 525 37,000 -240 Level FlightAware ADS-B (KMCO)
09:44PM 25.0790 -82.5510 179° South 453 521 36,700 -720 Descending FlightAware
09:45PM 24.9990 -82.5480 178° South 454 522 36,100 -960 Descending FlightAware
09:46PM 24.9360 -82.5490 181° South 451 519 35,600 -1,140 Descending FlightAware
09:46PM 24.9020 -82.5600 196° South 449 517 35,300 -1,260 Descending FlightAware
09:46PM 24.8740 -82.5760 207° Southwest 449 517 35,000 -960 Descending FlightAware
09:47PM 24.8160 -82.6270 219° Southwest 458 527 34,500 -960 Descending FlightAware
09:47PM 24.7590 -82.6790 220° Southwest 459 528 33,900 -2,040 Descending FlightAware
09:50PM 24.5557 -82.6476 178° South  Level Estimated
09:51PM 24.4697 -82.6216 165° South  Level FlightAware Approximate
09:52PM 24.3836 -82.5955 165° South  Level FlightAware Approximate
09:53PM 24.2976 -82.5695 165° South  Level FlightAware Approximate
09:53PM 24.1797 -82.8406 173° South 403 464 22,300  Level Miami Center
09:54PM 24.2115 -82.5436 165° South  Level FlightAware Approximate
09:55PM 24.1255 -82.5177 165° South  Level FlightAware Approximate
09:56PM 24.0366 -82.5091 180° South  Level Estimated
09:57PM 23.9158 -82.5046 173° South  Level FlightAware Approximate
09:58PM 23.8017 -82.4883 173° South  Level FlightAware Approximate
09:58PM 23.8340 -83.5010 173° South 457 526 31,400  Level FlightAware
10:01PM 23.6554 -83.2682 130° Southeast  Level Estimated
10:02PM 23.5814 -83.1720 130° Southeast  Level Estimated
10:03PM 23.5073 -83.0760 130° Southeast  Level Estimated
10:04PM 23.4332 -82.9800 130° Southeast  Level Estimated
10:05PM 23.3590 -82.8842 130° Southeast  Level Estimated
10:06PM 23.2847 -82.7884 130° Southeast  Level Estimated
10:07PM 23.2104 -82.6928 130° Southeast  Level Estimated
10:08PM 23.1361 -82.5973 130° Southeast  Level Estimated
10:09PM 23.0617 -82.5019 130° Southeast  Level Estimated
10:10PM 22.9891 -82.4091 130° Southeast  Level Estimated
10:11PM 22.9891 -82.4091 51° Northeast  Level Estimated
10:12PM 22.9891 -82.4091 51° Northeast  Level Estimated
10:13PM 22.9891 -82.4091 51° Northeast  Level Estimated
10:14PM 22.9891 -82.4091 51° Northeast  Level Estimated
10:15PM 22.9891 -82.4091 51° Northeast  Level Estimated
10:16PM 22.9891 -82.4091 51° Northeast  Level Estimated
10:17PM 22.9891 -82.4091 51° Northeast  Level Estimated
10:18PM 22.9891 -82.4091 51° Northeast  Level Estimated
10:19PM 22.9891 -82.4091 51° Northeast  Level Estimated
10:20PM 22.9891 -82.4091 51° Northeast  Level Estimated
10:21PM 22.9891 -82.4091 51° Northeast  Level Estimated
10:22PM 22.9891 -82.4091 51° Northeast  Level Estimated
10:23PM 22.9891 -82.4091 51° Northeast  Level Estimated
10:24PM 22.9891 -82.4091 51° Northeast  Level Estimated
10:25PM 22.9891 -82.4091 51° Northeast  Level Estimated